createdAt,value
2018-10-17T00:05:57.189Z,100.00
2018-10-17T00:08:28.013Z,100.00
2018-10-17T00:10:58.776Z,100.00
2018-10-17T00:13:29.431Z,100.00
2018-10-17T00:19:00.956Z,100.00
2018-10-17T00:21:43.265Z,100.00
2018-10-17T00:30:11.239Z,100.00
2018-10-17T00:32:42.553Z,100.00
2018-10-17T00:35:24.719Z,100.00
2018-10-17T00:37:55.367Z,100.00
2018-10-17T00:40:45.057Z,100.00
2018-10-17T00:43:27.790Z,100.00
2018-10-17T00:45:58.506Z,100.00
2018-10-17T00:48:29.668Z,100.00
2018-10-17T00:53:42.887Z,100.00
2018-10-17T00:56:13.626Z,100.00
2018-10-17T00:59:17.218Z,100.00
2018-10-17T01:01:47.962Z,100.00
2018-10-17T01:04:18.628Z,100.00
2018-10-17T01:06:49.327Z,100.00
2018-10-17T01:09:19.994Z,100.00
2018-10-17T01:11:50.653Z,100.00
2018-10-17T01:14:21.337Z,100.00
2018-10-17T01:19:34.369Z,100.00
2018-10-17T01:22:05.037Z,100.00
2018-10-17T01:24:35.704Z,100.00
2018-10-17T01:30:06.499Z,100.00
2018-10-17T01:32:55.930Z,100.00
2018-10-17T01:35:26.584Z,100.00
2018-10-17T01:40:53.356Z,100.00
2018-10-17T01:46:05.374Z,100.00
2018-10-17T01:48:47.697Z,100.00
2018-10-17T01:51:18.363Z,100.00
2018-10-17T01:57:03.041Z,100.00
2018-10-17T02:02:15.766Z,100.00
2018-10-17T02:04:46.438Z,100.00
2018-10-17T02:07:28.927Z,100.00
2018-10-17T02:10:19.234Z,100.00
2018-10-17T02:13:08.980Z,100.00
2018-10-17T02:15:52.999Z,100.00
2018-10-17T02:18:42.625Z,100.00
2018-10-17T02:26:55.798Z,100.00
2018-10-17T02:29:45.205Z,100.00
2018-10-17T02:32:15.907Z,100.00
2018-10-17T02:35:05.271Z,100.00
2018-10-17T02:37:35.940Z,100.00
2018-10-17T02:40:06.729Z,100.00
2018-10-17T02:45:33.819Z,100.00
2018-10-17T02:48:21.741Z,100.00
2018-10-17T02:50:52.515Z,100.00
2018-10-17T02:53:23.397Z,100.00
2018-10-17T03:01:42.043Z,100.00
2018-10-17T03:04:18.974Z,100.00
2018-10-17T03:09:32.399Z,100.00
2018-10-17T03:14:44.478Z,100.00
2018-10-17T03:17:15.231Z,100.00
2018-10-17T03:19:46.070Z,100.00
2018-10-17T03:22:16.780Z,100.00
2018-10-17T03:25:06.445Z,100.00
2018-10-17T03:30:18.985Z,100.00
2018-10-17T03:33:08.720Z,100.00
2018-10-17T03:35:51.719Z,100.00
2018-10-17T03:40:52.563Z,100.00
2018-10-17T03:43:23.263Z,100.00
2018-10-17T03:45:54.015Z,100.00
2018-10-17T03:48:24.915Z,100.00
2018-10-17T03:50:55.960Z,100.00
2018-10-17T03:53:26.605Z,100.00
2018-10-17T03:55:57.266Z,100.00
2018-10-17T03:58:27.970Z,100.00
2018-10-17T04:00:58.636Z,100.00
2018-10-17T04:03:29.347Z,100.00
2018-10-17T04:06:00.028Z,100.00
2018-10-17T04:08:42.494Z,100.00
2018-10-17T04:11:07.227Z,100.00
2018-10-17T04:13:52.279Z,100.00
2018-10-17T04:16:28.519Z,100.00
2018-10-17T04:19:13.742Z,100.00
2018-10-17T04:21:49.541Z,100.00
2018-10-17T04:27:29.171Z,100.00
2018-10-17T04:30:00.190Z,100.00
2018-10-17T04:32:30.858Z,100.00
2018-10-17T04:35:01.608Z,100.00
2018-10-17T04:37:32.351Z,100.00
2018-10-17T04:40:03.038Z,100.00
2018-10-17T04:42:33.687Z,100.00
2018-10-17T04:45:23.375Z,100.00
2018-10-17T04:47:54.119Z,100.00
2018-10-17T04:50:24.865Z,100.00
2018-10-17T04:52:55.613Z,100.00
2018-10-17T04:55:45.299Z,100.00
2018-10-17T04:58:16.016Z,100.00
2018-10-17T05:04:12.486Z,100.00
2018-10-17T05:09:32.651Z,100.00
2018-10-17T05:12:04.292Z,100.00
2018-10-17T05:14:46.439Z,100.00
2018-10-17T05:17:44.325Z,100.00
2018-10-17T05:20:15.009Z,100.00
2018-10-17T05:22:45.675Z,100.00
2018-10-17T05:25:16.434Z,100.00
2018-10-17T05:27:58.534Z,100.00
2018-10-17T05:30:23.676Z,100.00
2018-10-17T05:32:54.372Z,100.00
2018-10-17T05:35:25.034Z,100.00
2018-10-17T05:37:55.974Z,100.00
2018-10-17T05:40:26.607Z,100.00
2018-10-17T05:42:57.691Z,100.00
2018-10-17T05:45:28.318Z,100.00
2018-10-17T05:48:10.811Z,100.00
2018-10-17T05:50:49.336Z,100.00
2018-10-17T05:53:20.020Z,100.00
2018-10-17T05:55:50.700Z,100.00
2018-10-17T05:58:21.821Z,100.00
2018-10-17T06:00:52.650Z,100.00
2018-10-17T06:03:23.274Z,100.00
2018-10-17T06:11:39.827Z,100.00
2018-10-17T06:14:15.812Z,100.00
2018-10-17T06:16:58.944Z,100.00
2018-10-17T06:22:27.598Z,100.00
2018-10-17T06:28:06.630Z,100.00
2018-10-17T06:30:37.564Z,100.00
2018-10-17T06:36:03.603Z,100.00
2018-10-17T06:41:16.415Z,100.00
2018-10-17T06:43:47.108Z,100.00
2018-10-17T06:49:03.926Z,100.00
2018-10-17T06:57:23.197Z,100.00
2018-10-17T06:59:53.863Z,100.00
2018-10-17T07:02:24.692Z,100.00
2018-10-17T07:04:55.293Z,100.00
2018-10-17T07:07:25.944Z,100.00
2018-10-17T07:09:56.602Z,100.00
2018-10-17T07:12:29.114Z,100.00
2018-10-17T07:14:57.908Z,100.00
2018-10-17T07:17:28.572Z,100.00
2018-10-17T07:23:13.732Z,100.00
2018-10-17T07:25:56.283Z,100.00
2018-10-17T07:28:26.943Z,100.00
2018-10-17T07:31:12.101Z,100.00
2018-10-17T07:33:46.648Z,100.00
2018-10-17T07:36:24.205Z,100.00
2018-10-17T07:38:49.728Z,99.77
2018-10-17T07:41:20.372Z,99.33
2018-10-17T07:43:51.512Z,97.54
2018-10-17T07:46:22.145Z,97.49
2018-10-17T07:48:55.409Z,96.82
2018-10-17T07:51:38.004Z,95.97
2018-10-17T07:54:14.097Z,96.11
2018-10-17T07:59:58.719Z,97.00
2018-10-17T08:02:48.020Z,95.44
2018-10-17T08:05:30.473Z,93.47
2018-10-17T08:07:55.119Z,92.55
2018-10-17T08:10:25.767Z,93.63
2018-10-17T08:13:00.116Z,92.42
2018-10-17T08:15:30.984Z,92.88
2018-10-17T08:17:59.111Z,92.06
2018-10-17T08:20:30.058Z,93.01
2018-10-17T08:23:00.797Z,93.88
2018-10-17T08:25:31.450Z,91.76
2018-10-17T08:28:02.165Z,91.30
2018-10-17T08:30:47.308Z,90.07
2018-10-17T08:33:23.867Z,90.43
2018-10-17T08:36:13.645Z,90.15
2018-10-17T08:38:44.214Z,87.71
2018-10-17T08:41:17.888Z,87.62
2018-10-17T08:43:45.562Z,89.02
2018-10-17T08:46:16.453Z,86.11
2018-10-17T08:48:58.665Z,86.17
2018-10-17T08:51:41.289Z,85.38
2018-10-17T08:54:23.912Z,85.38
2018-10-17T08:57:01.229Z,85.16
2018-10-17T08:59:25.970Z,83.57
2018-10-17T09:01:56.677Z,82.61
2018-10-17T09:04:38.643Z,82.24
2018-10-17T09:07:27.990Z,82.24
2018-10-17T09:10:10.566Z,80.47
2018-10-17T09:12:49.184Z,80.75
2018-10-17T09:15:51.253Z,77.22
2018-10-17T09:18:44.476Z,77.22
2018-10-17T09:21:25.995Z,75.99
2018-10-17T09:24:07.825Z,75.99
2018-10-17T09:26:38.453Z,75.99
2018-10-17T09:32:17.659Z,74.84
2018-10-17T09:38:02.289Z,74.42
2018-10-17T09:40:45.204Z,70.80
2018-10-17T09:43:27.985Z,70.80
2018-10-17T09:45:52.645Z,71.27
2018-10-17T09:51:19.415Z,71.82
2018-10-17T09:53:50.078Z,70.17
2018-10-17T09:59:16.149Z,68.76
2018-10-17T10:02:05.562Z,68.75
2018-10-17T10:04:36.779Z,68.36
2018-10-17T10:07:07.427Z,68.50
2018-10-17T10:09:38.090Z,66.59
2018-10-17T10:12:20.663Z,65.98
2018-10-17T10:15:13.254Z,65.41
2018-10-17T10:17:36.456Z,65.71
2018-10-17T10:20:07.326Z,63.77
2018-10-17T10:22:38.368Z,63.57
2018-10-17T10:25:20.542Z,63.81
2018-10-17T10:27:46.633Z,62.41
2018-10-17T10:30:17.303Z,62.61
2018-10-17T10:33:06.681Z,62.12
2018-10-17T10:35:37.454Z,61.32
2018-10-17T10:38:27.198Z,61.61
2018-10-17T10:41:12.058Z,60.68
2018-10-17T10:46:37.736Z,58.60
2018-10-17T10:52:09.603Z,58.02
2018-10-17T10:55:01.215Z,57.61
2018-10-17T10:57:26.546Z,57.32
2018-10-17T11:00:11.550Z,58.07
2018-10-17T11:02:34.678Z,57.04
2018-10-17T11:07:46.854Z,58.76
2018-10-17T11:10:17.516Z,57.30
2018-10-17T11:12:48.162Z,57.38
2018-10-17T11:18:00.849Z,57.94
2018-10-17T11:20:31.489Z,57.99
2018-10-17T11:23:21.002Z,57.82
2018-10-17T11:25:51.598Z,57.67
2018-10-17T11:28:22.254Z,58.25
2018-10-17T11:31:11.868Z,56.95
2018-10-17T11:34:01.258Z,58.23
2018-10-17T11:36:31.991Z,57.08
2018-10-17T11:39:02.684Z,57.73
2018-10-17T11:44:59.400Z,57.83
2018-10-17T11:50:01.856Z,56.29
2018-10-17T11:52:32.886Z,57.84
2018-10-17T11:55:03.796Z,55.91
2018-10-17T11:57:34.484Z,55.54
2018-10-17T12:00:05.939Z,55.99
2018-10-17T12:07:58.416Z,55.91
2018-10-17T12:10:26.399Z,56.64
2018-10-17T12:13:11.228Z,56.55
2018-10-17T12:15:33.710Z,56.01
2018-10-17T12:20:46.185Z,55.78
2018-10-17T12:23:16.834Z,55.58
2018-10-17T12:25:47.499Z,55.51
2018-10-17T12:31:01.057Z,55.56
2018-10-17T12:33:50.411Z,56.50
2018-10-17T12:36:21.069Z,56.25
2018-10-17T12:38:51.764Z,54.34
2018-10-17T12:41:22.411Z,54.00
2018-10-17T12:43:53.054Z,53.93
2018-10-17T12:46:23.805Z,54.67
2018-10-17T12:48:54.655Z,54.95
2018-10-17T12:51:37.110Z,55.59
2018-10-17T12:54:07.919Z,54.73
2018-10-17T12:56:39.317Z,54.73
2018-10-17T12:59:10.155Z,54.81
2018-10-17T13:01:40.715Z,56.05
2018-10-17T13:04:22.812Z,54.81
2018-10-17T13:06:53.809Z,54.75
2018-10-17T13:09:43.766Z,54.39
2018-10-17T13:12:14.712Z,54.64
2018-10-17T13:18:11.354Z,53.43
2018-10-17T13:20:42.306Z,55.08
2018-10-17T13:23:13.292Z,54.83
2018-10-17T13:25:43.842Z,54.28
2018-10-17T13:33:51.906Z,54.09
2018-10-17T13:36:22.921Z,51.65
2018-10-17T13:38:53.585Z,52.56
2018-10-17T13:44:53.885Z,53.78
2018-10-17T13:47:30.419Z,52.57
2018-10-17T13:50:07.787Z,51.95
2018-10-17T13:52:29.793Z,52.92
2018-10-17T13:55:00.524Z,51.20
2018-10-17T13:57:45.498Z,51.23
2018-10-17T14:00:09.098Z,51.68
2018-10-17T14:02:39.785Z,53.06
2018-10-17T14:05:29.409Z,52.32
2018-10-17T14:08:00.349Z,50.84
2018-10-17T14:10:31.002Z,50.96
2018-10-17T14:13:01.664Z,50.85
2018-10-17T14:15:32.769Z,49.83
2018-10-17T14:18:03.543Z,50.17
2018-10-17T14:20:34.128Z,51.58
2018-10-17T14:23:04.745Z,51.73
2018-10-17T14:25:35.403Z,52.09
2018-10-17T14:28:24.819Z,53.00
2018-10-17T14:31:14.832Z,53.41
2018-10-17T14:36:40.887Z,52.74
2018-10-17T14:39:13.667Z,53.46
2018-10-17T14:41:44.640Z,53.29
2018-10-17T14:44:30.189Z,54.37
2018-10-17T14:46:52.968Z,55.47
2018-10-17T14:49:23.615Z,56.34
2018-10-17T14:52:06.115Z,56.08
2018-10-17T14:54:31.513Z,56.83
2018-10-17T15:00:04.814Z,55.57
2018-10-17T15:02:29.754Z,55.58
2018-10-17T15:07:56.122Z,57.18
2018-10-17T15:10:46.266Z,56.13
2018-10-17T15:13:16.924Z,56.83
2018-10-17T15:15:48.201Z,56.01
2018-10-17T15:21:22.630Z,55.86
2018-10-17T15:24:12.977Z,57.22
2018-10-17T15:26:35.833Z,58.46
2018-10-17T15:29:21.505Z,58.65
2018-10-17T15:34:40.252Z,59.38
2018-10-17T15:37:25.672Z,57.65
2018-10-17T15:40:01.738Z,58.93
2018-10-17T15:42:32.391Z,58.77
2018-10-17T15:45:03.119Z,58.43
2018-10-17T15:47:45.491Z,58.08
2018-10-17T15:50:24.110Z,58.63
2018-10-17T15:52:54.802Z,58.58
2018-10-17T15:55:25.450Z,59.07
2018-10-17T15:57:56.445Z,58.95
2018-10-17T16:00:27.152Z,59.19
2018-10-17T16:02:57.833Z,59.31
2018-10-17T16:08:10.886Z,59.40
2018-10-17T16:10:41.976Z,60.09
2018-10-17T16:13:12.637Z,60.56
2018-10-17T16:15:43.288Z,61.17
2018-10-17T16:18:14.887Z,61.57
2018-10-17T16:20:45.546Z,61.27
2018-10-17T16:23:16.282Z,60.13
2018-10-17T16:25:46.905Z,59.92
2018-10-17T16:28:17.937Z,60.18
2018-10-17T16:30:48.760Z,61.57
2018-10-17T16:33:19.250Z,62.02
2018-10-17T16:36:02.269Z,62.86
2018-10-17T16:38:26.944Z,60.79
2018-10-17T16:40:57.707Z,61.42
2018-10-17T16:43:28.297Z,59.70
2018-10-17T16:49:01.827Z,61.66
2018-10-17T16:51:27.075Z,61.17
2018-10-17T16:53:58.253Z,62.73
2018-10-17T16:56:29.289Z,63.92
2018-10-17T16:59:00.341Z,65.62
2018-10-17T17:01:31.372Z,66.29
2018-10-17T17:04:02.130Z,68.84
2018-10-17T17:06:47.418Z,65.21
2018-10-17T17:09:11.685Z,65.54
2018-10-17T17:11:42.452Z,69.27
2018-10-17T17:14:16.441Z,69.61
2018-10-17T17:16:56.585Z,65.52
2018-10-17T17:19:47.725Z,65.71
2018-10-17T17:22:13.653Z,69.35
2018-10-17T17:25:03.800Z,67.34
2018-10-17T17:27:35.233Z,66.10
2018-10-17T17:30:08.461Z,65.49
2018-10-17T17:32:39.144Z,68.05
2018-10-17T17:35:28.518Z,68.35
2018-10-17T17:43:45.079Z,67.60
2018-10-17T17:46:28.125Z,66.42
2018-10-17T17:49:10.320Z,67.33
2018-10-17T17:51:48.105Z,70.31
2018-10-17T17:54:12.813Z,71.91
2018-10-17T17:56:43.741Z,69.34
2018-10-17T17:59:25.697Z,71.71
2018-10-17T18:01:56.329Z,73.12
2018-10-17T18:04:27.185Z,70.33
2018-10-17T18:07:16.797Z,69.91
2018-10-17T18:09:47.458Z,72.64
2018-10-17T18:12:18.093Z,71.25
2018-10-17T18:17:44.758Z,75.63
2018-10-17T18:20:15.413Z,78.27
2018-10-17T18:22:57.778Z,78.31
2018-10-17T18:28:29.483Z,82.04
2018-10-17T18:31:00.149Z,81.87
2018-10-17T18:36:12.669Z,83.53
2018-10-17T18:38:43.808Z,84.15
2018-10-17T18:41:14.949Z,84.34
2018-10-17T18:43:45.982Z,83.94
2018-10-17T18:46:16.653Z,84.61
2018-10-17T18:48:58.954Z,85.78
2018-10-17T18:51:23.935Z,87.26
2018-10-17T18:54:07.007Z,88.53
2018-10-17T18:56:49.174Z,89.12
2018-10-17T18:59:31.678Z,88.08
2018-10-17T19:02:13.777Z,89.04
2018-10-17T19:07:59.351Z,88.77
2018-10-17T19:10:41.822Z,89.86
2018-10-17T19:13:24.474Z,90.01
2018-10-17T19:16:06.977Z,89.33
2018-10-17T19:18:49.457Z,88.07
2018-10-17T19:21:32.422Z,90.40
2018-10-17T19:24:15.081Z,87.96
2018-10-17T19:26:57.341Z,89.56
2018-10-17T19:29:39.610Z,88.50
2018-10-17T19:32:24.944Z,88.50
2018-10-17T19:34:51.007Z,91.45
2018-10-17T19:37:31.307Z,90.99
2018-10-17T19:40:11.361Z,91.75
2018-10-17T19:48:34.266Z,92.20
2018-10-17T19:51:08.967Z,91.90
2018-10-17T19:53:51.973Z,91.90
2018-10-17T19:56:49.568Z,92.29
2018-10-17T19:59:31.766Z,93.03
2018-10-17T20:02:14.490Z,94.72
2018-10-17T20:04:56.688Z,93.81
2018-10-17T20:07:27.436Z,93.81
2018-10-17T20:10:17.150Z,92.53
2018-10-17T20:12:59.234Z,92.28
2018-10-17T20:15:41.605Z,90.70
2018-10-17T20:18:12.693Z,90.70
2018-10-17T20:20:43.682Z,90.70
2018-10-17T20:23:14.410Z,90.82
2018-10-17T20:25:57.243Z,91.54
2018-10-17T20:28:27.983Z,91.54
2018-10-17T20:31:10.367Z,92.36
2018-10-17T20:34:00.233Z,96.33
2018-10-17T20:36:49.650Z,96.33
2018-10-17T20:42:10.177Z,96.24
2018-10-17T20:44:41.392Z,95.07
2018-10-17T20:47:12.637Z,93.88
2018-10-17T20:49:43.366Z,93.63
2018-10-17T20:52:25.747Z,93.64
2018-10-17T20:57:53.898Z,94.01
2018-10-17T21:00:43.572Z,93.48
2018-10-17T21:03:14.317Z,93.66
2018-10-17T21:06:04.474Z,93.89
2018-10-17T21:08:47.034Z,95.28
2018-10-17T21:11:17.745Z,94.71
2018-10-17T21:13:48.445Z,94.75
2018-10-17T21:16:19.088Z,93.66
2018-10-17T21:19:09.444Z,93.04
2018-10-17T21:21:40.622Z,93.24
2018-10-17T21:24:18.451Z,93.41
2018-10-17T21:26:49.216Z,94.12
2018-10-17T21:29:19.918Z,95.16
2018-10-17T21:32:09.668Z,99.43
2018-10-17T21:34:59.296Z,99.43
2018-10-17T21:38:01.015Z,100.00
2018-10-17T21:40:44.427Z,100.00
2018-10-17T21:43:27.109Z,100.00
2018-10-17T21:46:39.379Z,100.00
2018-10-17T21:49:01.549Z,100.00
2018-10-17T21:51:43.835Z,100.00
2018-10-17T21:57:15.379Z,100.00
2018-10-17T21:59:46.045Z,100.00
2018-10-17T22:02:47.626Z,100.00
2018-10-17T22:05:13.104Z,100.00
2018-10-17T22:07:43.810Z,100.00
2018-10-17T22:10:33.241Z,100.00
2018-10-17T22:18:53.940Z,100.00
2018-10-17T22:24:19.290Z,100.00
2018-10-17T22:26:50.002Z,100.00
2018-10-17T22:32:48.219Z,100.00
2018-10-17T22:35:37.858Z,100.00
2018-10-17T22:38:09.080Z,100.00
2018-10-17T22:43:47.830Z,100.00
2018-10-17T22:46:18.565Z,100.00
2018-10-17T22:49:08.259Z,100.00
2018-10-17T22:51:54.083Z,100.00
2018-10-17T22:54:16.931Z,100.00
2018-10-17T22:57:06.607Z,100.00
2018-10-17T22:59:37.341Z,100.00
2018-10-17T23:02:08.106Z,100.00
2018-10-17T23:04:50.891Z,100.00
2018-10-17T23:07:16.258Z,100.00
2018-10-17T23:09:47.017Z,100.00
2018-10-17T23:12:36.681Z,100.00
2018-10-17T23:15:11.963Z,100.00
2018-10-17T23:17:42.718Z,100.00
2018-10-17T23:23:03.767Z,100.00
2018-10-17T23:25:34.531Z,100.00
2018-10-17T23:31:09.203Z,100.00
2018-10-17T23:33:46.152Z,100.00
2018-10-17T23:36:28.547Z,100.00
2018-10-17T23:38:59.583Z,100.00
2018-10-17T23:41:30.295Z,100.00
2018-10-17T23:44:12.742Z,100.00
2018-10-17T23:46:49.651Z,100.00
2018-10-17T23:49:14.734Z,100.00
2018-10-17T23:54:53.028Z,100.00
